createdAt,value
2022-12-29T00:02:50.723Z,7.50
2022-12-29T00:17:52.751Z,7.50
2022-12-29T00:33:13.249Z,7.50
2022-12-29T00:48:15.162Z,7.40
2022-12-29T01:03:17.242Z,7.30
2022-12-29T01:18:20.479Z,7.30
2022-12-29T01:33:22.397Z,7.30
2022-12-29T01:48:24.847Z,7.50
2022-12-29T02:03:29.966Z,7.50
2022-12-29T02:19:16.068Z,7.70
2022-12-29T02:34:22.802Z,7.70
2022-12-29T02:49:45.336Z,7.30
2022-12-29T03:05:14.202Z,7.30
2022-12-29T03:20:22.334Z,7.20
2022-12-29T03:35:28.608Z,7.00
2022-12-29T03:50:30.511Z,7.40
2022-12-29T04:05:32.815Z,7.40
2022-12-29T04:20:53.310Z,7.40
2022-12-29T04:35:55.716Z,7.30
2022-12-29T04:50:57.662Z,7.50
2022-12-29T05:05:59.617Z,7.60
2022-12-29T05:21:01.557Z,7.60
2022-12-29T05:36:08.288Z,7.70
2022-12-29T05:51:10.207Z,7.70
2022-12-29T06:06:12.124Z,7.50
2022-12-29T06:21:14.074Z,7.50
2022-12-29T06:36:16.336Z,7.60
2022-12-29T06:51:19.421Z,7.80
2022-12-29T07:06:21.861Z,7.90
2022-12-29T07:21:24.059Z,7.80
2022-12-29T07:36:29.393Z,7.80
2022-12-29T07:51:36.100Z,7.80
2022-12-29T08:06:38.929Z,7.80
2022-12-29T08:21:41.497Z,7.90
2022-12-29T08:36:43.534Z,8.20
2022-12-29T08:51:45.476Z,8.70
2022-12-29T09:06:47.501Z,8.80
2022-12-29T09:21:49.422Z,8.90
2022-12-29T09:36:51.437Z,8.90
2022-12-29T09:51:57.795Z,9.10
2022-12-29T10:07:29.283Z,9.40
2022-12-29T10:22:58.999Z,9.70
2022-12-29T10:38:16.016Z,10.10
2022-12-29T10:53:23.977Z,10.90
2022-12-29T11:08:29.120Z,11.20
2022-12-29T11:23:37.590Z,11.10
2022-12-29T11:38:53.289Z,11.40
2022-12-29T11:53:59.089Z,11.40
2022-12-29T12:09:15.649Z,11.30
2022-12-29T12:24:40.683Z,11.30
2022-12-29T12:39:57.440Z,11.00
2022-12-29T12:55:14.720Z,11.10
2022-12-29T13:10:37.633Z,10.70
2022-12-29T13:25:59.797Z,11.20
2022-12-29T13:41:14.157Z,11.70
2022-12-29T13:56:22.151Z,11.90
2022-12-29T14:11:37.250Z,11.70
2022-12-29T14:26:39.219Z,10.30
2022-12-29T14:41:41.495Z,9.80
2022-12-29T14:56:43.927Z,9.50
2022-12-29T15:11:52.311Z,9.10
2022-12-29T15:26:58.251Z,8.70
2022-12-29T15:42:05.000Z,8.40
2022-12-29T15:57:25.331Z,8.20
2022-12-29T16:12:37.662Z,8.00
2022-12-29T16:27:43.145Z,8.00
2022-12-29T16:42:50.968Z,8.10
2022-12-29T16:57:54.780Z,8.10
2022-12-29T17:12:56.714Z,8.10
2022-12-29T17:28:12.680Z,8.20
2022-12-29T17:43:16.174Z,8.30
2022-12-29T17:58:23.820Z,8.30
2022-12-29T18:13:40.332Z,8.20
2022-12-29T18:28:49.530Z,8.20
2022-12-29T18:43:51.847Z,8.00
2022-12-29T18:58:53.904Z,8.10
2022-12-29T19:13:55.868Z,8.00
2022-12-29T19:28:58.666Z,7.80
2022-12-29T19:44:00.955Z,7.60
2022-12-29T19:59:02.890Z,7.80
2022-12-29T20:14:04.999Z,7.70
2022-12-29T20:29:07.144Z,7.80
2022-12-29T20:44:09.117Z,7.70
2022-12-29T20:59:27.538Z,7.60
2022-12-29T21:14:30.271Z,7.40
2022-12-29T21:29:32.206Z,7.50
2022-12-29T21:44:52.621Z,7.40
2022-12-29T22:00:13.086Z,7.40
2022-12-29T22:15:15.129Z,7.40
2022-12-29T22:30:17.885Z,7.40
2022-12-29T22:45:19.849Z,7.50
2022-12-29T23:00:21.831Z,7.50
2022-12-29T23:15:23.747Z,8.00
2022-12-29T23:30:25.710Z,8.10
2022-12-29T23:45:27.633Z,8.20
